sensor_id;sensor_type;location;lat;lon;timestamp;temperature;humidity
12874;DHT22;6505;51.114;13.128;2022-12-07T00:01:45;11.20;57.60
12874;DHT22;6505;51.114;13.128;2022-12-07T00:04:16;11.20;57.60
12874;DHT22;6505;51.114;13.128;2022-12-07T00:06:51;11.20;57.60
12874;DHT22;6505;51.114;13.128;2022-12-07T00:09:20;11.10;57.80
12874;DHT22;6505;51.114;13.128;2022-12-07T00:11:51;11.20;57.60
12874;DHT22;6505;51.114;13.128;2022-12-07T00:14:19;11.20;57.50
12874;DHT22;6505;51.114;13.128;2022-12-07T00:16:49;11.20;57.50
12874;DHT22;6505;51.114;13.128;2022-12-07T00:19:18;11.20;57.70
12874;DHT22;6505;51.114;13.128;2022-12-07T00:21:46;11.20;57.60
12874;DHT22;6505;51.114;13.128;2022-12-07T00:24:14;11.20;57.50
12874;DHT22;6505;51.114;13.128;2022-12-07T00:26:43;11.20;57.50
12874;DHT22;6505;51.114;13.128;2022-12-07T00:29:15;11.20;57.50
12874;DHT22;6505;51.114;13.128;2022-12-07T00:31:45;11.20;57.50
12874;DHT22;6505;51.114;13.128;2022-12-07T00:34:16;11.20;57.50
12874;DHT22;6505;51.114;13.128;2022-12-07T00:36:46;11.10;57.40
12874;DHT22;6505;51.114;13.128;2022-12-07T00:39:14;11.20;57.50
12874;DHT22;6505;51.114;13.128;2022-12-07T00:41:43;11.20;57.30
12874;DHT22;6505;51.114;13.128;2022-12-07T00:44:13;11.20;57.40
12874;DHT22;6505;51.114;13.128;2022-12-07T00:46:41;11.20;57.30
12874;DHT22;6505;51.114;13.128;2022-12-07T00:49:09;11.10;57.20
12874;DHT22;6505;51.114;13.128;2022-12-07T00:51:37;11.20;58.00
12874;DHT22;6505;51.114;13.128;2022-12-07T00:54:06;11.20;57.20
12874;DHT22;6505;51.114;13.128;2022-12-07T00:56:34;11.10;57.20
12874;DHT22;6505;51.114;13.128;2022-12-07T00:59:03;11.20;57.20
12874;DHT22;6505;51.114;13.128;2022-12-07T01:01:34;11.10;57.20
12874;DHT22;6505;51.114;13.128;2022-12-07T01:04:04;11.10;57.20
12874;DHT22;6505;51.114;13.128;2022-12-07T01:06:33;11.20;57.20
12874;DHT22;6505;51.114;13.128;2022-12-07T01:09:03;11.20;57.30
12874;DHT22;6505;51.114;13.128;2022-12-07T01:11:33;11.20;57.20
12874;DHT22;6505;51.114;13.128;2022-12-07T01:14:01;11.20;57.00
12874;DHT22;6505;51.114;13.128;2022-12-07T01:16:32;11.20;57.00
12874;DHT22;6505;51.114;13.128;2022-12-07T01:19:01;11.20;57.00
12874;DHT22;6505;51.114;13.128;2022-12-07T01:21:32;11.20;57.60
12874;DHT22;6505;51.114;13.128;2022-12-07T01:24:05;11.20;56.80
12874;DHT22;6505;51.114;13.128;2022-12-07T01:26:36;11.20;56.70
12874;DHT22;6505;51.114;13.128;2022-12-07T01:29:04;11.20;56.50
12874;DHT22;6505;51.114;13.128;2022-12-07T01:31:34;11.10;56.40
12874;DHT22;6505;51.114;13.128;2022-12-07T01:34:02;11.10;56.50
12874;DHT22;6505;51.114;13.128;2022-12-07T01:36:32;11.20;56.70
12874;DHT22;6505;51.114;13.128;2022-12-07T01:39:04;11.10;56.80
12874;DHT22;6505;51.114;13.128;2022-12-07T01:41:35;11.10;56.70
12874;DHT22;6505;51.114;13.128;2022-12-07T01:44:19;11.10;57.40
12874;DHT22;6505;51.114;13.128;2022-12-07T01:46:51;11.10;56.70
12874;DHT22;6505;51.114;13.128;2022-12-07T01:49:27;11.10;56.80
12874;DHT22;6505;51.114;13.128;2022-12-07T01:52:04;11.20;56.80
12874;DHT22;6505;51.114;13.128;2022-12-07T01:54:39;11.10;56.80
12874;DHT22;6505;51.114;13.128;2022-12-07T01:57:08;11.10;56.80
12874;DHT22;6505;51.114;13.128;2022-12-07T01:59:36;11.10;56.80
12874;DHT22;6505;51.114;13.128;2022-12-07T02:02:10;11.10;56.80
12874;DHT22;6505;51.114;13.128;2022-12-07T02:04:46;11.10;56.80
12874;DHT22;6505;51.114;13.128;2022-12-07T02:07:14;11.10;56.80
12874;DHT22;6505;51.114;13.128;2022-12-07T02:09:43;11.20;57.00
12874;DHT22;6505;51.114;13.128;2022-12-07T02:12:11;11.10;56.80
12874;DHT22;6505;51.114;13.128;2022-12-07T02:14:39;11.10;56.90
12874;DHT22;6505;51.114;13.128;2022-12-07T02:17:15;11.10;56.90
12874;DHT22;6505;51.114;13.128;2022-12-07T02:20:13;11.10;56.90
12874;DHT22;6505;51.114;13.128;2022-12-07T02:23:04;11.10;56.90
12874;DHT22;6505;51.114;13.128;2022-12-07T02:26:10;11.10;56.90
12874;DHT22;6505;51.114;13.128;2022-12-07T02:29:23;11.10;56.80
12874;DHT22;6505;51.114;13.128;2022-12-07T02:31:59;11.10;56.70
12874;DHT22;6505;51.114;13.128;2022-12-07T02:34:39;11.10;56.50
12874;DHT22;6505;51.114;13.128;2022-12-07T02:37:19;11.00;56.40
12874;DHT22;6505;51.114;13.128;2022-12-07T02:39:55;11.00;57.10
12874;DHT22;6505;51.114;13.128;2022-12-07T02:42:31;11.00;56.40
12874;DHT22;6505;51.114;13.128;2022-12-07T02:45:07;11.10;56.30
12874;DHT22;6505;51.114;13.128;2022-12-07T02:47:37;11.00;56.40
12874;DHT22;6505;51.114;13.128;2022-12-07T02:50:08;11.00;56.30
12874;DHT22;6505;51.114;13.128;2022-12-07T02:52:36;11.00;56.10
12874;DHT22;6505;51.114;13.128;2022-12-07T02:55:05;11.00;56.00
12874;DHT22;6505;51.114;13.128;2022-12-07T02:57:45;11.00;56.00
12874;DHT22;6505;51.114;13.128;2022-12-07T03:00:23;11.00;55.90
12874;DHT22;6505;51.114;13.128;2022-12-07T03:02:55;11.00;55.60
12874;DHT22;6505;51.114;13.128;2022-12-07T03:05:53;10.90;55.60
12874;DHT22;6505;51.114;13.128;2022-12-07T03:08:48;10.90;55.60
12874;DHT22;6505;51.114;13.128;2022-12-07T03:11:25;10.90;55.70
12874;DHT22;6505;51.114;13.128;2022-12-07T03:14:04;10.90;55.70
12874;DHT22;6505;51.114;13.128;2022-12-07T03:16:43;10.90;55.60
12874;DHT22;6505;51.114;13.128;2022-12-07T03:19:20;10.90;55.60
12874;DHT22;6505;51.114;13.128;2022-12-07T03:21:54;10.90;55.70
12874;DHT22;6505;51.114;13.128;2022-12-07T03:24:27;10.80;55.60
12874;DHT22;6505;51.114;13.128;2022-12-07T03:27:03;10.80;55.70
12874;DHT22;6505;51.114;13.128;2022-12-07T03:29:37;10.80;56.30
12874;DHT22;6505;51.114;13.128;2022-12-07T03:32:13;10.90;55.60
12874;DHT22;6505;51.114;13.128;2022-12-07T03:34:47;10.90;55.60
12874;DHT22;6505;51.114;13.128;2022-12-07T03:37:23;10.80;55.50
12874;DHT22;6505;51.114;13.128;2022-12-07T03:40:03;10.80;55.40
12874;DHT22;6505;51.114;13.128;2022-12-07T03:42:35;10.80;55.70
12874;DHT22;6505;51.114;13.128;2022-12-07T03:45:04;10.80;55.30
12874;DHT22;6505;51.114;13.128;2022-12-07T03:47:38;10.80;55.40
12874;DHT22;6505;51.114;13.128;2022-12-07T03:50:15;10.80;
12874;DHT22;6505;51.114;13.128;2022-12-07T03:52:55;10.80;55.40
12874;DHT22;6505;51.114;13.128;2022-12-07T03:55:29;10.80;55.30
12874;DHT22;6505;51.114;13.128;2022-12-07T03:58:04;10.70;55.20
12874;DHT22;6505;51.114;13.128;2022-12-07T04:00:35;10.70;55.00
12874;DHT22;6505;51.114;13.128;2022-12-07T04:03:05;10.80;55.10
12874;DHT22;6505;51.114;13.128;2022-12-07T04:05:33;10.80;55.00
12874;DHT22;6505;51.114;13.128;2022-12-07T04:08:03;10.70;54.90
12874;DHT22;6505;51.114;13.128;2022-12-07T04:10:32;10.70;54.90
12874;DHT22;6505;51.114;13.128;2022-12-07T04:13:00;10.70;54.70
12874;DHT22;6505;51.114;13.128;2022-12-07T04:15:28;10.70;54.50
12874;DHT22;6505;51.114;13.128;2022-12-07T04:17:56;10.70;54.70
12874;DHT22;6505;51.114;13.128;2022-12-07T04:20:26;10.70;54.70
12874;DHT22;6505;51.114;13.128;2022-12-07T04:22:54;10.70;54.60
12874;DHT22;6505;51.114;13.128;2022-12-07T04:25:22;10.70;54.60
12874;DHT22;6505;51.114;13.128;2022-12-07T04:27:50;10.60;54.50
12874;DHT22;6505;51.114;13.128;2022-12-07T04:30:18;10.60;54.50
12874;DHT22;6505;51.114;13.128;2022-12-07T04:32:46;10.60;54.50
12874;DHT22;6505;51.114;13.128;2022-12-07T04:35:15;10.60;54.40
12874;DHT22;6505;51.114;13.128;2022-12-07T04:37:44;10.60;54.50
12874;DHT22;6505;51.114;13.128;2022-12-07T04:40:12;10.60;54.50
12874;DHT22;6505;51.114;13.128;2022-12-07T04:42:41;10.60;54.50
12874;DHT22;6505;51.114;13.128;2022-12-07T04:45:09;10.60;54.50
12874;DHT22;6505;51.114;13.128;2022-12-07T04:47:37;10.50;54.50
12874;DHT22;6505;51.114;13.128;2022-12-07T04:50:06;10.60;54.50
12874;DHT22;6505;51.114;13.128;2022-12-07T04:52:36;10.50;54.50
12874;DHT22;6505;51.114;13.128;2022-12-07T04:55:06;10.50;54.40
12874;DHT22;6505;51.114;13.128;2022-12-07T04:57:35;10.50;54.50
12874;DHT22;6505;51.114;13.128;2022-12-07T05:00:04;10.50;54.40
12874;DHT22;6505;51.114;13.128;2022-12-07T05:02:33;10.50;54.50
12874;DHT22;6505;51.114;13.128;2022-12-07T05:05:02;10.50;54.40
12874;DHT22;6505;51.114;13.128;2022-12-07T05:07:30;10.50;54.50
12874;DHT22;6505;51.114;13.128;2022-12-07T05:09:58;10.50;54.30
12874;DHT22;6505;51.114;13.128;2022-12-07T05:12:28;10.50;54.50
12874;DHT22;6505;51.114;13.128;2022-12-07T05:14:56;10.50;54.40
12874;DHT22;6505;51.114;13.128;2022-12-07T05:17:24;10.50;54.40
12874;DHT22;6505;51.114;13.128;2022-12-07T05:19:52;10.50;54.30
12874;DHT22;6505;51.114;13.128;2022-12-07T05:22:21;10.50;54.40
12874;DHT22;6505;51.114;13.128;2022-12-07T05:24:49;10.50;54.30
12874;DHT22;6505;51.114;13.128;2022-12-07T05:27:17;10.50;54.40
12874;DHT22;6505;51.114;13.128;2022-12-07T05:29:46;10.50;54.50
12874;DHT22;6505;51.114;13.128;2022-12-07T05:32:14;10.50;54.50
12874;DHT22;6505;51.114;13.128;2022-12-07T05:34:45;10.50;54.50
12874;DHT22;6505;51.114;13.128;2022-12-07T05:37:13;10.50;54.50
12874;DHT22;6505;51.114;13.128;2022-12-07T05:39:41;10.50;54.40
12874;DHT22;6505;51.114;13.128;2022-12-07T05:42:10;10.50;54.40
12874;DHT22;6505;51.114;13.128;2022-12-07T05:44:43;10.50;54.50
12874;DHT22;6505;51.114;13.128;2022-12-07T05:47:14;10.50;54.50
12874;DHT22;6505;51.114;13.128;2022-12-07T05:49:43;10.50;54.50
12874;DHT22;6505;51.114;13.128;2022-12-07T05:52:11;10.50;54.50
12874;DHT22;6505;51.114;13.128;2022-12-07T05:54:39;10.50;54.60
12874;DHT22;6505;51.114;13.128;2022-12-07T05:57:07;10.50;54.60
12874;DHT22;6505;51.114;13.128;2022-12-07T05:59:36;10.50;54.80
12874;DHT22;6505;51.114;13.128;2022-12-07T06:02:06;10.50;54.90
12874;DHT22;6505;51.114;13.128;2022-12-07T06:04:39;10.50;55.00
12874;DHT22;6505;51.114;13.128;2022-12-07T06:07:09;10.50;55.10
12874;DHT22;6505;51.114;13.128;2022-12-07T06:09:40;10.50;55.10
12874;DHT22;6505;51.114;13.128;2022-12-07T06:12:09;10.50;55.00
12874;DHT22;6505;51.114;13.128;2022-12-07T06:14:55;10.50;55.20
12874;DHT22;6505;51.114;13.128;2022-12-07T06:17:24;10.60;55.40
12874;DHT22;6505;51.114;13.128;2022-12-07T06:19:53;10.60;55.60
12874;DHT22;6505;51.114;13.128;2022-12-07T06:22:21;10.50;55.30
12874;DHT22;6505;51.114;13.128;2022-12-07T06:24:50;10.50;55.30
12874;DHT22;6505;51.114;13.128;2022-12-07T06:27:18;10.50;55.30
12874;DHT22;6505;51.114;13.128;2022-12-07T06:29:46;10.50;55.30
12874;DHT22;6505;51.114;13.128;2022-12-07T06:32:14;10.60;55.40
12874;DHT22;6505;51.114;13.128;2022-12-07T06:34:42;10.50;55.30
12874;DHT22;6505;51.114;13.128;2022-12-07T06:37:11;10.50;55.30
12874;DHT22;6505;51.114;13.128;2022-12-07T06:39:40;10.50;55.40
12874;DHT22;6505;51.114;13.128;2022-12-07T06:42:08;10.50;55.40
12874;DHT22;6505;51.114;13.128;2022-12-07T06:44:36;10.50;55.40
12874;DHT22;6505;51.114;13.128;2022-12-07T06:47:04;10.60;55.40
12874;DHT22;6505;51.114;13.128;2022-12-07T06:49:54;10.50;55.50
12874;DHT22;6505;51.114;13.128;2022-12-07T06:52:23;10.50;55.60
12874;DHT22;6505;51.114;13.128;2022-12-07T06:54:51;10.50;55.50
12874;DHT22;6505;51.114;13.128;2022-12-07T06:57:19;10.50;56.20
12874;DHT22;6505;51.114;13.128;2022-12-07T06:59:49;10.50;55.70
12874;DHT22;6505;51.114;13.128;2022-12-07T07:02:17;10.50;55.60
12874;DHT22;6505;51.114;13.128;2022-12-07T07:04:45;10.50;55.80
12874;DHT22;6505;51.114;13.128;2022-12-07T07:07:13;10.50;55.80
12874;DHT22;6505;51.114;13.128;2022-12-07T07:09:43;10.50;55.80
12874;DHT22;6505;51.114;13.128;2022-12-07T07:12:11;10.50;55.80
12874;DHT22;6505;51.114;13.128;2022-12-07T07:14:39;10.50;55.80
12874;DHT22;6505;51.114;13.128;2022-12-07T07:17:07;10.50;55.80
12874;DHT22;6505;51.114;13.128;2022-12-07T07:19:35;10.60;55.90
12874;DHT22;6505;51.114;13.128;2022-12-07T07:22:04;10.50;55.80
12874;DHT22;6505;51.114;13.128;2022-12-07T07:24:32;10.60;56.00
12874;DHT22;6505;51.114;13.128;2022-12-07T07:27:01;10.50;55.80
12874;DHT22;6505;51.114;13.128;2022-12-07T07:29:29;10.50;56.00
12874;DHT22;6505;51.114;13.128;2022-12-07T07:31:57;10.50;56.20
12874;DHT22;6505;51.114;13.128;2022-12-07T07:34:32;10.50;56.20
12874;DHT22;6505;51.114;13.128;2022-12-07T07:37:00;10.50;56.30
12874;DHT22;6505;51.114;13.128;2022-12-07T07:39:29;10.50;56.40
12874;DHT22;6505;51.114;13.128;2022-12-07T07:41:57;10.60;56.40
12874;DHT22;6505;51.114;13.128;2022-12-07T07:44:28;10.60;56.60
12874;DHT22;6505;51.114;13.128;2022-12-07T07:47:01;10.50;56.50
12874;DHT22;6505;51.114;13.128;2022-12-07T07:49:30;10.60;56.70
12874;DHT22;6505;51.114;13.128;2022-12-07T07:51:58;10.60;56.60
12874;DHT22;6505;51.114;13.128;2022-12-07T07:54:26;10.60;56.60
12874;DHT22;6505;51.114;13.128;2022-12-07T07:56:54;10.60;56.70
12874;DHT22;6505;51.114;13.128;2022-12-07T07:59:22;10.60;56.90
12874;DHT22;6505;51.114;13.128;2022-12-07T08:01:53;10.60;56.90
12874;DHT22;6505;51.114;13.128;2022-12-07T08:04:21;10.60;56.80
12874;DHT22;6505;51.114;13.128;2022-12-07T08:06:50;10.60;57.00
12874;DHT22;6505;51.114;13.128;2022-12-07T08:09:18;10.60;57.00
12874;DHT22;6505;51.114;13.128;2022-12-07T08:11:46;10.60;57.00
12874;DHT22;6505;51.114;13.128;2022-12-07T08:14:14;10.70;57.00
12874;DHT22;6505;51.114;13.128;2022-12-07T08:16:42;10.70;57.00
12874;DHT22;6505;51.114;13.128;2022-12-07T08:19:12;10.70;57.10
12874;DHT22;6505;51.114;13.128;2022-12-07T08:21:40;10.70;57.20
12874;DHT22;6505;51.114;13.128;2022-12-07T08:24:08;10.70;57.20
12874;DHT22;6505;51.114;13.128;2022-12-07T08:26:36;10.70;57.10
12874;DHT22;6505;51.114;13.128;2022-12-07T08:29:04;10.70;57.20
12874;DHT22;6505;51.114;13.128;2022-12-07T08:31:32;10.70;57.90
12874;DHT22;6505;51.114;13.128;2022-12-07T08:34:00;10.70;57.20
12874;DHT22;6505;51.114;13.128;2022-12-07T08:36:30;10.70;57.20
12874;DHT22;6505;51.114;13.128;2022-12-07T08:38:58;10.70;57.90
12874;DHT22;6505;51.114;13.128;2022-12-07T08:41:46;10.70;57.30
12874;DHT22;6505;51.114;13.128;2022-12-07T08:44:15;10.80;57.40
12874;DHT22;6505;51.114;13.128;2022-12-07T08:46:47;10.80;57.40
12874;DHT22;6505;51.114;13.128;2022-12-07T08:49:20;10.80;57.60
12874;DHT22;6505;51.114;13.128;2022-12-07T08:51:52;10.80;57.60
12874;DHT22;6505;51.114;13.128;2022-12-07T08:54:23;10.80;57.50
12874;DHT22;6505;51.114;13.128;2022-12-07T08:56:51;10.80;57.40
12874;DHT22;6505;51.114;13.128;2022-12-07T08:59:26;10.80;57.50
12874;DHT22;6505;51.114;13.128;2022-12-07T09:01:55;10.80;57.50
12874;DHT22;6505;51.114;13.128;2022-12-07T09:04:23;10.80;57.50
12874;DHT22;6505;51.114;13.128;2022-12-07T09:06:53;10.90;57.20
12874;DHT22;6505;51.114;13.128;2022-12-07T09:09:23;10.80;57.80
12874;DHT22;6505;51.114;13.128;2022-12-07T09:11:51;10.80;57.70
12874;DHT22;6505;51.114;13.128;2022-12-07T09:14:19;10.90;57.60
12874;DHT22;6505;51.114;13.128;2022-12-07T09:16:47;10.90;57.50
12874;DHT22;6505;51.114;13.128;2022-12-07T09:19:15;11.00;57.70
12874;DHT22;6505;51.114;13.128;2022-12-07T09:21:43;11.00;57.60
12874;DHT22;6505;51.114;13.128;2022-12-07T09:24:13;10.90;57.50
12874;DHT22;6505;51.114;13.128;2022-12-07T09:26:41;11.00;57.50
12874;DHT22;6505;51.114;13.128;2022-12-07T09:29:09;11.00;57.50
12874;DHT22;6505;51.114;13.128;2022-12-07T09:31:37;11.00;57.40
12874;DHT22;6505;51.114;13.128;2022-12-07T09:34:05;11.00;57.60
12874;DHT22;6505;51.114;13.128;2022-12-07T09:36:34;11.00;57.60
12874;DHT22;6505;51.114;13.128;2022-12-07T09:39:02;11.00;57.60
12874;DHT22;6505;51.114;13.128;2022-12-07T09:41:33;11.00;57.60
12874;DHT22;6505;51.114;13.128;2022-12-07T09:44:06;11.00;57.60
12874;DHT22;6505;51.114;13.128;2022-12-07T09:46:40;11.00;57.70
12874;DHT22;6505;51.114;13.128;2022-12-07T09:49:12;11.00;57.80
12874;DHT22;6505;51.114;13.128;2022-12-07T09:51:44;11.00;57.90
12874;DHT22;6505;51.114;13.128;2022-12-07T09:54:13;11.00;58.10
12874;DHT22;6505;51.114;13.128;2022-12-07T09:56:44;11.10;58.30
12874;DHT22;6505;51.114;13.128;2022-12-07T09:59:16;11.00;58.10
12874;DHT22;6505;51.114;13.128;2022-12-07T10:01:48;11.10;58.50
12874;DHT22;6505;51.114;13.128;2022-12-07T10:04:20;11.10;58.50
12874;DHT22;6505;51.114;13.128;2022-12-07T10:06:50;11.10;58.60
12874;DHT22;6505;51.114;13.128;2022-12-07T10:09:20;11.20;58.60
12874;DHT22;6505;51.114;13.128;2022-12-07T10:12:02;11.10;58.50
12874;DHT22;6505;51.114;13.128;2022-12-07T10:14:34;11.20;58.80
12874;DHT22;6505;51.114;13.128;2022-12-07T10:17:30;11.20;58.70
12874;DHT22;6505;51.114;13.128;2022-12-07T10:20:20;11.30;58.80
12874;DHT22;6505;51.114;13.128;2022-12-07T10:23:01;11.20;58.80
12874;DHT22;6505;51.114;13.128;2022-12-07T10:25:34;11.20;58.70
12874;DHT22;6505;51.114;13.128;2022-12-07T10:28:12;11.30;58.70
12874;DHT22;6505;51.114;13.128;2022-12-07T10:30:52;11.30;58.90
12874;DHT22;6505;51.114;13.128;2022-12-07T10:33:32;11.30;58.90
12874;DHT22;6505;51.114;13.128;2022-12-07T10:36:17;11.30;58.90
12874;DHT22;6505;51.114;13.128;2022-12-07T10:38:49;11.30;58.90
12874;DHT22;6505;51.114;13.128;2022-12-07T10:41:19;11.30;58.90
12874;DHT22;6505;51.114;13.128;2022-12-07T10:43:51;11.40;58.90
12874;DHT22;6505;51.114;13.128;2022-12-07T10:46:43;11.30;58.80
12874;DHT22;6505;51.114;13.128;2022-12-07T10:49:55;11.30;59.00
12874;DHT22;6505;51.114;13.128;2022-12-07T10:52:52;11.40;58.90
12874;DHT22;6505;51.114;13.128;2022-12-07T10:55:41;11.40;58.90
12874;DHT22;6505;51.114;13.128;2022-12-07T10:58:31;11.30;58.90
12874;DHT22;6505;51.114;13.128;2022-12-07T11:01:21;11.40;59.10
12874;DHT22;6505;51.114;13.128;2022-12-07T11:04:07;11.30;58.90
12874;DHT22;6505;51.114;13.128;2022-12-07T11:06:50;11.40;59.10
12874;DHT22;6505;51.114;13.128;2022-12-07T11:13:04;11.40;59.10
12874;DHT22;6505;51.114;13.128;2022-12-07T11:15:53;11.40;59.20
12874;DHT22;6505;51.114;13.128;2022-12-07T11:18:37;11.40;59.20
12874;DHT22;6505;51.114;13.128;2022-12-07T11:21:19;11.40;59.10
12874;DHT22;6505;51.114;13.128;2022-12-07T11:23:56;11.40;59.20
12874;DHT22;6505;51.114;13.128;2022-12-07T11:26:50;11.40;59.20
12874;DHT22;6505;51.114;13.128;2022-12-07T11:29:42;11.40;59.10
12874;DHT22;6505;51.114;13.128;2022-12-07T11:32:40;11.50;59.10
12874;DHT22;6505;51.114;13.128;2022-12-07T11:35:23;11.40;59.00
12874;DHT22;6505;51.114;13.128;2022-12-07T11:37:59;11.50;59.00
12874;DHT22;6505;51.114;13.128;2022-12-07T11:40:36;11.40;58.90
12874;DHT22;6505;51.114;13.128;2022-12-07T11:43:15;11.50;58.90
12874;DHT22;6505;51.114;13.128;2022-12-07T11:45:54;11.50;58.80
12874;DHT22;6505;51.114;13.128;2022-12-07T11:48:33;11.50;58.90
12874;DHT22;6505;51.114;13.128;2022-12-07T11:51:09;11.50;58.90
12874;DHT22;6505;51.114;13.128;2022-12-07T11:53:42;11.50;58.90
12874;DHT22;6505;51.114;13.128;2022-12-07T11:56:17;11.50;58.90
12874;DHT22;6505;51.114;13.128;2022-12-07T11:58:51;11.50;58.90
12874;DHT22;6505;51.114;13.128;2022-12-07T12:01:31;11.50;58.90
12874;DHT22;6505;51.114;13.128;2022-12-07T12:04:18;11.50;59.10
12874;DHT22;6505;51.114;13.128;2022-12-07T12:06:56;11.60;59.10
12874;DHT22;6505;51.114;13.128;2022-12-07T12:10:05;11.60;59.00
12874;DHT22;6505;51.114;13.128;2022-12-07T12:13:14;11.60;59.00
12874;DHT22;6505;51.114;13.128;2022-12-07T12:16:58;11.60;59.70
12874;DHT22;6505;51.114;13.128;2022-12-07T12:20:02;11.60;58.90
12874;DHT22;6505;51.114;13.128;2022-12-07T12:22:58;11.60;58.90
12874;DHT22;6505;51.114;13.128;2022-12-07T12:25:52;11.60;58.90
12874;DHT22;6505;51.114;13.128;2022-12-07T12:28:50;11.50;58.80
12874;DHT22;6505;51.114;13.128;2022-12-07T12:31:40;11.50;58.90
12874;DHT22;6505;51.114;13.128;2022-12-07T12:35:00;11.60;58.90
12874;DHT22;6505;51.114;13.128;2022-12-07T12:38:29;11.50;58.80
12874;DHT22;6505;51.114;13.128;2022-12-07T12:45:21;11.50;58.80
12874;DHT22;6505;51.114;13.128;2022-12-07T12:48:27;11.50;58.70
12874;DHT22;6505;51.114;13.128;2022-12-07T12:51:36;11.50;58.80
12874;DHT22;6505;51.114;13.128;2022-12-07T12:54:26;11.50;58.70
12874;DHT22;6505;51.114;13.128;2022-12-07T12:57:18;11.50;58.70
12874;DHT22;6505;51.114;13.128;2022-12-07T13:00:17;11.50;58.70
12874;DHT22;6505;51.114;13.128;2022-12-07T13:03:05;11.50;58.60
12874;DHT22;6505;51.114;13.128;2022-12-07T13:06:19;11.50;58.50
12874;DHT22;6505;51.114;13.128;2022-12-07T13:09:00;11.50;58.50
12874;DHT22;6505;51.114;13.128;2022-12-07T13:11:32;11.50;58.50
12874;DHT22;6505;51.114;13.128;2022-12-07T13:17:57;11.50;58.60
12874;DHT22;6505;51.114;13.128;2022-12-07T13:20:42;11.50;58.50
12874;DHT22;6505;51.114;13.128;2022-12-07T13:23:18;11.50;58.50
12874;DHT22;6505;51.114;13.128;2022-12-07T13:26:09;11.50;58.50
12874;DHT22;6505;51.114;13.128;2022-12-07T13:28:47;11.60;58.50
12874;DHT22;6505;51.114;13.128;2022-12-07T13:31:23;11.60;58.40
12874;DHT22;6505;51.114;13.128;2022-12-07T13:34:03;11.60;58.70
12874;DHT22;6505;51.114;13.128;2022-12-07T13:36:37;11.60;58.60
12874;DHT22;6505;51.114;13.128;2022-12-07T13:39:18;11.70;58.70
12874;DHT22;6505;51.114;13.128;2022-12-07T13:41:52;11.50;58.50
12874;DHT22;6505;51.114;13.128;2022-12-07T13:44:24;11.60;58.30
12874;DHT22;6505;51.114;13.128;2022-12-07T13:47:00;11.60;58.20
12874;DHT22;6505;51.114;13.128;2022-12-07T13:49:38;11.70;58.20
12874;DHT22;6505;51.114;13.128;2022-12-07T13:52:21;11.60;57.90
12874;DHT22;6505;51.114;13.128;2022-12-07T13:54:57;11.70;57.90
12874;DHT22;6505;51.114;13.128;2022-12-07T13:57:29;11.70;57.90
12874;DHT22;6505;51.114;13.128;2022-12-07T14:00:00;11.70;57.80
12874;DHT22;6505;51.114;13.128;2022-12-07T14:02:31;11.70;57.90
12874;DHT22;6505;51.114;13.128;2022-12-07T14:05:09;11.70;58.40
12874;DHT22;6505;51.114;13.128;2022-12-07T14:07:52;11.70;57.70
12874;DHT22;6505;51.114;13.128;2022-12-07T14:10:24;11.70;57.60
12874;DHT22;6505;51.114;13.128;2022-12-07T14:12:54;11.70;57.40
12874;DHT22;6505;51.114;13.128;2022-12-07T14:15:28;11.70;57.30
12874;DHT22;6505;51.114;13.128;2022-12-07T14:17:58;11.70;57.40
12874;DHT22;6505;51.114;13.128;2022-12-07T14:20:32;11.70;57.20
12874;DHT22;6505;51.114;13.128;2022-12-07T14:23:02;11.70;57.10
12874;DHT22;6505;51.114;13.128;2022-12-07T14:25:45;11.70;57.30
12874;DHT22;6505;51.114;13.128;2022-12-07T14:28:26;11.70;57.00
12874;DHT22;6505;51.114;13.128;2022-12-07T14:30:56;11.70;56.90
12874;DHT22;6505;51.114;13.128;2022-12-07T14:33:25;11.70;56.90
12874;DHT22;6505;51.114;13.128;2022-12-07T14:35:55;11.70;57.00
12874;DHT22;6505;51.114;13.128;2022-12-07T14:38:25;11.70;57.00
12874;DHT22;6505;51.114;13.128;2022-12-07T14:40:54;11.70;57.50
12874;DHT22;6505;51.114;13.128;2022-12-07T14:43:43;11.70;56.90
12874;DHT22;6505;51.114;13.128;2022-12-07T14:46:33;11.80;56.90
12874;DHT22;6505;51.114;13.128;2022-12-07T14:49:01;11.80;56.60
12874;DHT22;6505;51.114;13.128;2022-12-07T14:51:49;11.70;56.30
12874;DHT22;6505;51.114;13.128;2022-12-07T14:54:37;11.70;56.50
12874;DHT22;6505;51.114;13.128;2022-12-07T14:57:07;11.80;56.50
12874;DHT22;6505;51.114;13.128;2022-12-07T14:59:36;11.70;56.30
12874;DHT22;6505;51.114;13.128;2022-12-07T15:02:13;11.70;56.20
12874;DHT22;6505;51.114;13.128;2022-12-07T15:04:42;11.70;56.20
12874;DHT22;6505;51.114;13.128;2022-12-07T15:07:15;11.70;56.10
12874;DHT22;6505;51.114;13.128;2022-12-07T15:09:47;11.70;56.20
12874;DHT22;6505;51.114;13.128;2022-12-07T15:12:15;11.80;56.20
12874;DHT22;6505;51.114;13.128;2022-12-07T15:14:43;11.70;56.20
12874;DHT22;6505;51.114;13.128;2022-12-07T15:17:13;11.70;56.10
12874;DHT22;6505;51.114;13.128;2022-12-07T15:19:55;11.80;56.00
12874;DHT22;6505;51.114;13.128;2022-12-07T15:22:23;11.70;56.60
12874;DHT22;6505;51.114;13.128;2022-12-07T15:24:51;11.70;55.90
12874;DHT22;6505;51.114;13.128;2022-12-07T15:27:19;11.70;56.00
12874;DHT22;6505;51.114;13.128;2022-12-07T15:29:47;11.70;56.00
12874;DHT22;6505;51.114;13.128;2022-12-07T15:32:17;11.70;55.90
12874;DHT22;6505;51.114;13.128;2022-12-07T15:34:45;11.80;56.00
12874;DHT22;6505;51.114;13.128;2022-12-07T15:37:13;11.70;55.90
12874;DHT22;6505;51.114;13.128;2022-12-07T15:39:41;11.70;55.90
12874;DHT22;6505;51.114;13.128;2022-12-07T15:42:09;11.80;56.00
12874;DHT22;6505;51.114;13.128;2022-12-07T15:44:38;11.80;56.00
12874;DHT22;6505;51.114;13.128;2022-12-07T15:47:24;11.70;55.70
12874;DHT22;6505;51.114;13.128;2022-12-07T15:49:53;11.70;55.70
12874;DHT22;6505;51.114;13.128;2022-12-07T15:52:24;11.70;55.50
12874;DHT22;6505;51.114;13.128;2022-12-07T15:54:52;11.70;55.40
12874;DHT22;6505;51.114;13.128;2022-12-07T15:57:20;11.70;55.30
12874;DHT22;6505;51.114;13.128;2022-12-07T15:59:51;11.70;55.30
12874;DHT22;6505;51.114;13.128;2022-12-07T16:02:20;11.70;55.30
12874;DHT22;6505;51.114;13.128;2022-12-07T16:04:51;11.70;55.30
12874;DHT22;6505;51.114;13.128;2022-12-07T16:07:19;11.70;55.40
12874;DHT22;6505;51.114;13.128;2022-12-07T16:09:48;11.80;55.40
12874;DHT22;6505;51.114;13.128;2022-12-07T16:12:17;11.70;55.40
12874;DHT22;6505;51.114;13.128;2022-12-07T16:14:45;11.70;55.30
12874;DHT22;6505;51.114;13.128;2022-12-07T16:17:13;11.70;55.20
12874;DHT22;6505;51.114;13.128;2022-12-07T16:19:41;11.70;55.10
12874;DHT22;6505;51.114;13.128;2022-12-07T16:22:11;11.70;55.50
12874;DHT22;6505;51.114;13.128;2022-12-07T16:24:39;11.70;55.50
12874;DHT22;6505;51.114;13.128;2022-12-07T16:27:07;11.70;55.60